Time;durP1;ratioP1;P1;durP2;ratioP2;P2;SDS_P1;SDS_P2;PMS_P1;PMS_P2;Temp;Humidity;BMP_temperature;BMP_pressure;BME280_temperature;BME280_humidity;BME280_pressure;Samples;Min_cycle;Max_cycle;Signal;HPM_P1;HPM_P2
2021/12/28 00:02:17;;;;;;;;;;;;;;;9.47;75.30;98386.50;5095011;28;19920;-83
2021/12/28 00:04:42;;;;;;;;;;;;;;;9.48;75.89;98391.53;5095406;28;20361;-84
2021/12/28 00:07:08;;;;;;;;;;;;;;;9.45;75.59;98392.91;5094790;28;19932;-82
2021/12/28 00:09:33;;;;;;;;;;;;;;;9.45;75.96;98389.47;5095111;28;19915;-82
2021/12/28 00:11:58;;;;;;;;;;;;;;;9.45;75.91;98384.13;5094586;28;19924;-80
2021/12/28 00:14:33;;;;;;;;;;;;;;;9.41;75.67;98386.56;5092781;28;20386;-79
2021/12/28 00:19:43;;;;;;;;;;;;;;;9.37;75.51;98398.88;5111804;28;19931;-80
2021/12/28 00:22:08;;;;;;;;;;;;;;;9.28;75.43;98408.59;5094769;28;20479;-80
2021/12/28 00:24:35;;;;;;;;;;;;;;;9.17;76.01;98399.88;5094959;28;19953;-80
2021/12/28 00:27:01;;;;;;;;;;;;;;;9.13;76.05;98404.22;5094922;28;19922;-78
2021/12/28 00:29:26;;;;;;;;;;;;;;;9.08;76.29;98412.22;5113472;28;19916;-81
2021/12/28 00:31:51;;;;;;;;;;;;;;;9.05;76.45;98408.25;5094795;28;20008;-80
2021/12/28 00:34:17;;;;;;;;;;;;;;;9.02;76.27;98403.50;5094700;28;20002;-78
2021/12/28 00:36:42;;;;;;;;;;;;;;;9.00;76.12;98405.66;5094953;28;19995;-78
2021/12/28 00:39:07;;;;;;;;;;;;;;;8.98;76.35;98402.47;5094378;28;19919;-77
2021/12/28 00:41:33;;;;;;;;;;;;;;;8.97;76.49;98400.88;5094623;28;19924;-79
2021/12/28 00:43:58;;;;;;;;;;;;;;;8.92;76.67;98408.91;5093877;28;19923;-77
2021/12/28 00:46:23;;;;;;;;;;;;;;;8.91;76.53;98399.31;5094253;28;20326;-76
2021/12/28 00:48:49;;;;;;;;;;;;;;;8.90;76.47;98397.72;5094695;28;20405;-77
2021/12/28 00:51:14;;;;;;;;;;;;;;;8.87;76.44;98407.09;5094354;28;19922;-78
2021/12/28 00:53:39;;;;;;;;;;;;;;;8.81;76.32;98397.53;5110448;28;20299;-77
2021/12/28 00:56:05;;;;;;;;;;;;;;;8.76;76.60;98408.25;5092429;28;20010;-78
2021/12/28 00:58:31;;;;;;;;;;;;;;;8.69;76.48;98405.94;5094537;28;19922;-77
2021/12/28 01:00:57;;;;;;;;;;;;;;;8.57;76.84;98406.28;5091397;28;20007;-77
2021/12/28 01:03:22;;;;;;;;;;;;;;;8.52;77.10;98411.66;5093991;28;20493;-78
2021/12/28 01:05:47;;;;;;;;;;;;;;;8.47;77.47;98401.81;5093439;28;19920;-78
2021/12/28 01:08:14;;;;;;;;;;;;;;;8.40;77.79;98405.81;5094079;28;20470;-77
2021/12/28 01:10:42;;;;;;;;;;;;;;;8.36;78.00;98402.13;5094322;28;19920;-77
2021/12/28 01:13:07;;;;;;;;;;;;;;;8.34;77.92;98395.19;5093727;28;19919;-76
2021/12/28 01:15:33;;;;;;;;;;;;;;;8.31;78.56;98395.78;5098308;28;20401;-75
2021/12/28 01:17:58;;;;;;;;;;;;;;;8.31;78.32;98392.28;5111669;28;19928;-75
2021/12/28 01:20:24;;;;;;;;;;;;;;;8.30;78.46;98390.69;5094170;28;19916;-76
2021/12/28 01:22:49;;;;;;;;;;;;;;;8.30;78.38;98388.03;5094142;28;19915;-76
2021/12/28 01:25:16;;;;;;;;;;;;;;;8.28;78.86;98396.31;5093763;28;20378;-77
2021/12/28 01:27:42;;;;;;;;;;;;;;;8.27;78.50;98393.94;5093969;28;19916;-82
2021/12/28 01:30:08;;;;;;;;;;;;;;;8.28;78.62;98390.19;5093765;28;20405;-77
2021/12/28 01:32:34;;;;;;;;;;;;;;;8.25;78.54;98388.06;5093600;28;20375;-78
2021/12/28 01:34:59;;;;;;;;;;;;;;;8.21;78.56;98385.16;5089208;28;19973;-78
2021/12/28 01:37:25;;;;;;;;;;;;;;;8.18;78.54;98381.19;5088962;28;19923;-77
2021/12/28 01:39:50;;;;;;;;;;;;;;;8.17;78.77;98378.81;5093939;28;19923;-75
2021/12/28 01:42:15;;;;;;;;;;;;;;;8.16;78.66;98382.53;5093315;28;20350;-75
2021/12/28 01:44:41;;;;;;;;;;;;;;;8.12;78.88;98378.84;5109754;28;20387;-76
2021/12/28 01:47:06;;;;;;;;;;;;;;;8.11;78.66;98364.72;5093274;28;19919;-77
2021/12/28 01:49:31;;;;;;;;;;;;;;;8.09;79.08;98382.88;5092904;28;20390;-77
2021/12/28 01:51:57;;;;;;;;;;;;;;;8.07;79.02;98389.50;5093395;28;19919;-77
2021/12/28 01:54:22;;;;;;;;;;;;;;;8.04;78.79;98388.19;5093552;28;20006;-75
2021/12/28 01:56:48;;;;;;;;;;;;;;;8.01;78.72;98392.22;5093610;28;19916;-76
2021/12/28 01:59:15;;;;;;;;;;;;;;;7.99;78.61;98386.34;5111705;28;19920;-77
2021/12/28 02:01:40;;;;;;;;;;;;;;;7.94;78.68;98383.72;5093130;28;20306;-75
2021/12/28 02:04:13;;;;;;;;;;;;;;;7.92;78.81;98404.53;5093143;28;19916;-80
2021/12/28 02:06:38;;;;;;;;;;;;;;;7.87;78.59;98391.22;5093046;28;19953;-82
2021/12/28 02:09:04;;;;;;;;;;;;;;;7.83;78.54;98395.50;5093262;28;20007;-81
2021/12/28 02:11:29;;;;;;;;;;;;;;;7.80;79.06;98388.88;5093605;28;19927;-80
2021/12/28 02:13:54;;;;;;;;;;;;;;;7.78;78.62;98390.22;5093308;28;19924;-80
2021/12/28 02:16:20;;;;;;;;;;;;;;;7.73;78.46;98388.34;5092844;28;19927;-80
2021/12/28 02:18:45;;;;;;;;;;;;;;;7.68;78.62;98385.72;5093047;28;19916;-80
2021/12/28 02:21:11;;;;;;;;;;;;;;;7.64;78.88;98379.34;5093264;28;19976;-78
2021/12/28 02:23:36;;;;;;;;;;;;;;;7.60;78.87;98381.75;5093325;28;20010;-77
2021/12/28 02:26:02;;;;;;;;;;;;;;;7.57;78.69;98373.50;5092760;28;19915;-77
2021/12/28 02:28:27;;;;;;;;;;;;;;;7.52;79.02;98383.13;5093429;28;19942;-77
2021/12/28 02:30:56;;;;;;;;;;;;;;;7.49;79.39;98385.53;5093020;28;19953;-78
2021/12/28 02:33:23;;;;;;;;;;;;;;;7.45;79.59;98377.28;5093372;28;20305;-77
2021/12/28 02:35:49;;;;;;;;;;;;;;;7.41;79.50;98376.25;5093096;28;19923;-80
2021/12/28 02:38:14;;;;;;;;;;;;;;;7.39;79.38;98378.38;5094435;28;20007;-80
2021/12/28 02:40:41;;;;;;;;;;;;;;;7.34;79.07;98376.53;5097200;28;19955;-75
2021/12/28 02:43:07;;;;;;;;;;;;;;;7.32;78.90;98375.19;5096527;28;20295;-74
2021/12/28 02:45:34;;;;;;;;;;;;;;;7.29;79.15;98381.09;5115097;28;20306;-79
2021/12/28 02:48:00;;;;;;;;;;;;;;;7.26;79.23;98384.28;5096518;28;19923;-77
2021/12/28 02:50:28;;;;;;;;;;;;;;;7.24;78.81;98389.88;5096836;28;19920;-76
2021/12/28 02:52:54;;;;;;;;;;;;;;;7.20;78.51;98397.59;5096883;28;19915;-76
2021/12/28 02:55:21;;;;;;;;;;;;;;;7.16;78.44;98391.19;5096571;28;19916;-75
2021/12/28 02:57:47;;;;;;;;;;;;;;;7.12;78.68;98392.81;5096553;28;19920;-75
2021/12/28 03:00:13;;;;;;;;;;;;;;;7.07;79.08;98384.03;5115025;28;19976;-76
2021/12/28 03:02:38;;;;;;;;;;;;;;;7.04;78.57;98390.69;5095779;28;20187;-75
2021/12/28 03:05:04;;;;;;;;;;;;;;;7.02;78.90;98387.53;5096425;28;19916;-76
2021/12/28 03:07:30;;;;;;;;;;;;;;;7.00;79.34;98389.63;5096255;28;19998;-74
2021/12/28 03:09:55;;;;;;;;;;;;;;;6.99;79.17;98380.06;5114768;28;20015;-75
2021/12/28 03:12:20;;;;;;;;;;;;;;;6.98;79.14;98381.94;5096923;28;19916;-80
2021/12/28 03:14:47;;;;;;;;;;;;;;;6.96;79.21;98380.63;5094989;28;19920;-77
2021/12/28 03:17:12;;;;;;;;;;;;;;;6.96;79.48;98380.63;5093300;28;19919;-75
2021/12/28 03:19:37;;;;;;;;;;;;;;;6.93;78.95;98378.47;5096437;28;20447;-75
2021/12/28 03:22:03;;;;;;;;;;;;;;;6.89;78.55;98373.69;5095999;28;19916;-75
2021/12/28 03:24:28;;;;;;;;;;;;;;;6.85;78.76;98379.84;5096338;28;19915;-75
2021/12/28 03:26:53;;;;;;;;;;;;;;;6.81;78.52;98376.91;5096143;28;19916;-74
2021/12/28 03:29:20;;;;;;;;;;;;;;;6.77;78.92;98381.16;5114291;28;20022;-75
2021/12/28 03:31:46;;;;;;;;;;;;;;;6.72;78.79;98376.63;5096169;28;19916;-75
2021/12/28 03:34:12;;;;;;;;;;;;;;;6.67;79.34;98381.94;5114012;28;20374;-74
2021/12/28 03:36:37;;;;;;;;;;;;;;;6.64;79.12;98376.38;5113699;28;19916;-76
2021/12/28 03:39:03;;;;;;;;;;;;;;;6.59;78.95;98376.38;5095918;28;19999;-75
2021/12/28 03:41:29;;;;;;;;;;;;;;;6.56;79.74;98372.41;5095901;28;20314;-76
2021/12/28 03:43:55;;;;;;;;;;;;;;;6.52;79.30;98369.47;5114289;28;20014;-75
2021/12/28 03:46:21;;;;;;;;;;;;;;;6.48;79.26;98371.06;5095438;28;19965;-74
2021/12/28 03:48:46;;;;;;;;;;;;;;;6.45;80.14;98368.94;5095568;28;19920;-75
2021/12/28 03:51:12;;;;;;;;;;;;;;;6.41;79.32;98367.88;5095525;28;19915;-75
2021/12/28 03:53:37;;;;;;;;;;;;;;;6.38;79.86;98374.53;5114066;28;20371;-74
2021/12/28 03:56:04;;;;;;;;;;;;;;;6.38;79.44;98379.03;5095141;28;19920;-74
2021/12/28 03:58:29;;;;;;;;;;;;;;;6.36;80.17;98383.78;5095297;28;19959;-76
2021/12/28 04:00:55;;;;;;;;;;;;;;;6.35;80.66;98379.56;5095348;28;20402;-77
2021/12/28 04:03:20;;;;;;;;;;;;;;;6.33;80.66;98379.03;5095389;28;19916;-77
2021/12/28 04:05:46;;;;;;;;;;;;;;;6.33;80.42;98381.69;5113188;28;19985;-77
2021/12/28 04:08:12;;;;;;;;;;;;;;;6.31;80.80;98381.94;5095315;28;19955;-77
2021/12/28 04:10:50;;;;;;;;;;;;;;;6.31;80.81;98378.47;5095212;28;19920;-78
2021/12/28 04:13:16;;;;;;;;;;;;;;;6.31;80.72;98374.00;5095172;28;20002;-72
2021/12/28 04:15:41;;;;;;;;;;;;;;;6.30;79.97;98372.38;5113243;28;20371;-72
2021/12/28 04:18:06;;;;;;;;;;;;;;;6.30;80.19;98372.38;5112663;28;20010;-72
2021/12/28 04:20:32;;;;;;;;;;;;;;;6.29;80.22;98383.28;5113574;28;20006;-73
2021/12/28 04:22:57;;;;;;;;;;;;;;;6.27;80.83;98377.44;5095004;28;19988;-74
2021/12/28 04:25:22;;;;;;;;;;;;;;;6.27;80.90;98380.09;5094654;28;19920;-74
2021/12/28 04:27:48;;;;;;;;;;;;;;;6.25;80.34;98381.13;5113744;28;20374;-74
2021/12/28 04:30:16;;;;;;;;;;;;;;;6.25;80.99;98383.00;5113453;28;19923;-74
2021/12/28 04:32:42;;;;;;;;;;;;;;;6.22;80.60;98384.31;5095057;28;20391;-74
2021/12/28 04:35:08;;;;;;;;;;;;;;;6.20;81.33;98391.75;5112750;28;19922;-74
2021/12/28 04:37:33;;;;;;;;;;;;;;;6.20;81.27;98402.38;5112497;28;19984;-77
2021/12/28 04:39:58;;;;;;;;;;;;;;;6.18;80.96;98401.84;5094181;28;19924;-74
2021/12/28 04:42:29;;;;;;;;;;;;;;;6.19;80.85;98397.31;5094762;28;19916;-74
2021/12/28 04:44:54;;;;;;;;;;;;;;;6.18;81.22;98401.84;5112768;28;20030;-74
2021/12/28 04:47:20;;;;;;;;;;;;;;;6.18;81.34;98398.41;5094207;28;20421;-74
2021/12/28 04:49:46;;;;;;;;;;;;;;;6.16;81.53;98393.31;5112361;28;19920;-76
2021/12/28 04:52:12;;;;;;;;;;;;;;;6.16;81.20;98395.97;5092509;28;19919;-75
2021/12/28 04:54:38;;;;;;;;;;;;;;;6.12;80.83;98402.88;5093712;28;19926;-74
2021/12/28 04:57:06;;;;;;;;;;;;;;;6.12;81.23;98402.09;5112111;28;20309;-75
2021/12/28 04:59:32;;;;;;;;;;;;;;;6.09;80.86;98403.41;5094287;28;20382;-74
2021/12/28 05:01:58;;;;;;;;;;;;;;;6.08;81.28;98405.28;5111730;28;19916;-74
2021/12/28 05:04:23;;;;;;;;;;;;;;;6.06;80.62;98410.03;5094369;28;20371;-75
2021/12/28 05:06:51;;;;;;;;;;;;;;;6.03;80.14;98404.44;5094021;28;19928;-79
2021/12/28 05:09:18;;;;;;;;;;;;;;;6.01;80.25;98412.69;5094029;28;19916;-79
2021/12/28 05:11:43;;;;;;;;;;;;;;;5.98;80.09;98413.19;5092843;28;19976;-76
2021/12/28 05:14:10;;;;;;;;;;;;;;;5.95;80.32;98412.91;5093921;28;19974;-76
2021/12/28 05:16:35;;;;;;;;;;;;;;;5.91;80.67;98418.72;5093809;28;19982;-76
2021/12/28 05:19:02;;;;;;;;;;;;;;;5.90;80.55;98421.66;5074518;28;20414;-75
2021/12/28 05:21:28;;;;;;;;;;;;;;;5.87;80.29;98436.25;5073802;28;19916;-77
2021/12/28 05:23:53;;;;;;;;;;;;;;;5.83;80.75;98429.84;5075038;28;19916;-75
2021/12/28 05:26:18;;;;;;;;;;;;;;;5.82;80.76;98433.53;5093260;28;19928;-76
2021/12/28 05:28:44;;;;;;;;;;;;;;;5.84;81.70;98430.66;5093935;28;19922;-76
2021/12/28 05:31:09;;;;;;;;;;;;;;;5.83;80.79;98429.84;5093719;28;19919;-76
2021/12/28 05:33:35;;;;;;;;;;;;;;;5.83;80.77;98431.69;5094037;28;19922;-76
2021/12/28 05:36:00;;;;;;;;;;;;;;;5.83;80.74;98437.78;5093574;28;19955;-75
2021/12/28 05:38:25;;;;;;;;;;;;;;;5.83;81.15;98429.06;5093728;28;20006;-76
2021/12/28 05:40:51;;;;;;;;;;;;;;;5.83;80.41;98432.50;5093792;28;19923;-75
2021/12/28 05:43:16;;;;;;;;;;;;;;;5.82;80.03;98438.06;5111592;28;19915;-76
2021/12/28 05:45:43;;;;;;;;;;;;;;;5.80;80.10;98448.94;5111873;28;20477;-75
2021/12/28 05:48:08;;;;;;;;;;;;;;;5.79;80.17;98441.25;5093546;28;19916;-76
2021/12/28 05:50:33;;;;;;;;;;;;;;;5.77;79.82;98436.19;5112315;28;19915;-78
2021/12/28 05:52:59;;;;;;;;;;;;;;;5.67;80.19;98431.63;5093432;28;19920;-82
2021/12/28 05:55:24;;;;;;;;;;;;;;;5.70;79.54;98444.38;5093545;28;20443;-75
2021/12/28 05:57:49;;;;;;;;;;;;;;;5.68;80.39;98441.19;5093411;28;20366;-75
2021/12/28 06:00:16;;;;;;;;;;;;;;;5.65;80.64;98451.53;5093255;28;20268;-74
2021/12/28 06:02:41;;;;;;;;;;;;;;;5.66;80.62;98451.25;5092930;28;19969;-76
2021/12/28 06:05:07;;;;;;;;;;;;;;;5.63;80.72;98446.47;5092853;28;19963;-79
2021/12/28 06:07:32;;;;;;;;;;;;;;;5.66;81.01;98450.47;5092599;28;19926;-77
2021/12/28 06:09:57;;;;;;;;;;;;;;;5.66;80.86;98455.78;5092976;28;19923;-76
2021/12/28 06:12:23;;;;;;;;;;;;;;;5.66;80.59;98456.56;5092701;28;19929;-73
2021/12/28 06:14:49;;;;;;;;;;;;;;;5.67;81.11;98457.38;5115035;28;19915;-75
2021/12/28 06:17:14;;;;;;;;;;;;;;;5.69;80.32;98463.19;5114864;28;20314;-73
2021/12/28 06:19:40;;;;;;;;;;;;;;;5.69;80.27;98469.31;5114883;28;19922;-75
2021/12/28 06:22:05;;;;;;;;;;;;;;;5.70;80.18;98465.63;5115185;28;20006;-75
2021/12/28 06:24:30;;;;;;;;;;;;;;;5.70;80.35;98467.44;5114900;28;20014;-74
2021/12/28 06:26:55;;;;;;;;;;;;;;;5.72;80.32;98457.38;5096657;28;19916;-74
2021/12/28 06:29:21;;;;;;;;;;;;;;;5.71;80.25;98469.88;5096501;28;19920;-74
2021/12/28 06:31:46;;;;;;;;;;;;;;;5.71;80.03;98464.56;5114992;28;20579;-74
2021/12/28 06:34:12;;;;;;;;;;;;;;;5.70;79.25;98457.66;5096271;28;19915;-73
2021/12/28 06:36:37;;;;;;;;;;;;;;;5.68;79.42;98462.41;5114387;28;20305;-73
2021/12/28 06:39:03;;;;;;;;;;;;;;;5.66;78.82;98467.16;5114600;28;19939;-72
2021/12/28 06:41:28;;;;;;;;;;;;;;;5.66;79.01;98463.72;5114727;28;19920;-73
2021/12/28 06:43:53;;;;;;;;;;;;;;;5.65;78.99;98470.09;5114453;28;20010;-72
2021/12/28 06:46:19;;;;;;;;;;;;;;;5.63;78.77;98469.53;5114509;28;19926;-72
2021/12/28 06:48:44;;;;;;;;;;;;;;;5.60;79.05;98471.66;5114665;28;20583;-73
2021/12/28 06:51:09;;;;;;;;;;;;;;;5.60;78.56;98469.00;5114338;28;19916;-74
2021/12/28 06:53:35;;;;;;;;;;;;;;;5.58;79.19;98465.03;5114512;28;19916;-70
2021/12/28 06:56:00;;;;;;;;;;;;;;;5.57;79.14;98474.81;5114065;28;19916;-74
2021/12/28 06:58:26;;;;;;;;;;;;;;;5.57;79.11;98482.00;5114199;28;20027;-76
2021/12/28 07:00:51;;;;;;;;;;;;;;;5.56;79.71;98483.81;5114475;28;20378;-74
2021/12/28 07:03:16;;;;;;;;;;;;;;;5.56;79.65;98480.38;5095839;28;19920;-73
2021/12/28 07:05:41;;;;;;;;;;;;;;;5.55;80.06;98476.13;5094861;28;19924;-80
2021/12/28 07:08:07;;;;;;;;;;;;;;;5.57;79.95;98474.81;5095741;28;20030;-77
2021/12/28 07:10:32;;;;;;;;;;;;;;;5.58;79.51;98465.81;5095850;28;20604;-75
2021/12/28 07:12:58;;;;;;;;;;;;;;;5.56;79.99;98469.78;5114469;28;20037;-73
2021/12/28 07:15:23;;;;;;;;;;;;;;;5.55;80.52;98463.66;5095170;28;20018;-77
2021/12/28 07:17:49;;;;;;;;;;;;;;;5.53;80.48;98460.47;5113617;28;19924;-75
2021/12/28 07:20:15;;;;;;;;;;;;;;;5.54;81.05;98458.63;5095410;28;19954;-76
2021/12/28 07:22:40;;;;;;;;;;;;;;;5.55;80.60;98461.00;5095662;28;20416;-76
2021/12/28 07:25:06;;;;;;;;;;;;;;;5.59;81.50;98464.75;5113670;28;19915;-75
2021/12/28 07:27:32;;;;;;;;;;;;;;;5.63;82.04;98467.69;5096205;28;19915;-74
2021/12/28 07:29:57;;;;;;;;;;;;;;;5.67;81.74;98471.41;5114226;28;20037;-78
2021/12/28 07:32:22;;;;;;;;;;;;;;;5.71;81.69;98474.38;5095607;28;19950;-77
2021/12/28 07:34:48;;;;;;;;;;;;;;;5.77;82.12;98475.97;5095155;28;20014;-76
2021/12/28 07:37:13;;;;;;;;;;;;;;;5.83;82.10;98479.47;5095745;28;19915;-77
2021/12/28 07:39:38;;;;;;;;;;;;;;;5.87;81.52;98478.69;5096164;28;19920;-74
2021/12/28 07:42:04;;;;;;;;;;;;;;;5.92;81.63;98477.94;5094880;28;20003;-75
2021/12/28 07:44:30;;;;;;;;;;;;;;;5.98;81.27;98476.88;5113377;28;20429;-76
2021/12/28 07:46:55;;;;;;;;;;;;;;;6.02;81.53;98483.28;5095808;28;20276;-76
2021/12/28 07:49:21;;;;;;;;;;;;;;;6.08;80.99;98481.47;5095402;28;20007;-76
2021/12/28 07:51:46;;;;;;;;;;;;;;;6.08;81.13;98487.56;5095741;28;19922;-76
2021/12/28 07:54:11;;;;;;;;;;;;;;;6.12;81.51;98485.19;5113700;28;19922;-76
2021/12/28 07:56:37;;;;;;;;;;;;;;;6.17;81.20;98477.22;5095641;28;19915;-76
2021/12/28 07:59:03;;;;;;;;;;;;;;;6.19;81.28;98484.94;5113774;28;19916;-77
2021/12/28 08:01:28;;;;;;;;;;;;;;;6.23;81.33;98497.44;5095710;28;19916;-76
2021/12/28 08:03:53;;;;;;;;;;;;;;;6.28;81.77;98495.88;5095622;28;19945;-76
2021/12/28 08:06:19;;;;;;;;;;;;;;;6.31;81.40;98493.50;5095148;28;20309;-76
2021/12/28 08:08:44;;;;;;;;;;;;;;;6.36;81.77;98487.38;5114263;28;20006;-77
2021/12/28 08:11:09;;;;;;;;;;;;;;;6.38;82.11;98491.38;5095175;28;19941;-77
2021/12/28 08:13:35;;;;;;;;;;;;;;;6.40;81.78;98488.47;5095198;28;20003;-77
2021/12/28 08:16:00;;;;;;;;;;;;;;;6.42;81.87;98491.66;5095097;28;19916;-76
2021/12/28 08:18:25;;;;;;;;;;;;;;;6.45;82.26;98488.47;5095209;28;20002;-77
2021/12/28 08:20:50;;;;;;;;;;;;;;;6.48;82.57;98485.31;5113246;28;19930;-76
2021/12/28 08:23:16;;;;;;;;;;;;;;;6.52;81.70;98485.56;5082865;28;20432;-77
2021/12/28 08:25:42;;;;;;;;;;;;;;;6.53;82.33;98477.34;5095083;28;19916;-75
2021/12/28 08:28:07;;;;;;;;;;;;;;;6.55;82.31;98469.09;5112764;28;19920;-75
2021/12/28 08:30:35;;;;;;;;;;;;;;;6.56;82.35;98465.38;5094458;28;19927;-76
2021/12/28 08:33:01;;;;;;;;;;;;;;;6.58;83.31;98465.91;5084445;28;19927;-76
2021/12/28 08:35:26;;;;;;;;;;;;;;;6.63;83.13;98470.41;5095170;28;19916;-76
2021/12/28 08:37:51;;;;;;;;;;;;;;;6.69;82.77;98467.53;5113049;28;19922;-73
2021/12/28 08:40:17;;;;;;;;;;;;;;;6.76;83.25;98458.50;5094023;28;20020;-74
2021/12/28 08:42:42;;;;;;;;;;;;;;;6.85;83.37;98464.88;5094616;28;19924;-73
2021/12/28 08:45:08;;;;;;;;;;;;;;;6.94;83.16;98467.81;5112567;28;19916;-76
2021/12/28 08:47:33;;;;;;;;;;;;;;;7.02;83.66;98457.44;5110415;28;19926;-75
2021/12/28 08:49:59;;;;;;;;;;;;;;;7.12;83.29;98461.94;5112954;28;19919;-75
2021/12/28 08:52:25;;;;;;;;;;;;;;;7.22;83.45;98461.91;5091915;28;19927;-76
2021/12/28 08:54:50;;;;;;;;;;;;;;;7.31;83.00;98464.84;5109653;28;19923;-74
2021/12/28 08:57:17;;;;;;;;;;;;;;;7.39;82.90;98466.16;5109624;28;19927;-74
2021/12/28 08:59:42;;;;;;;;;;;;;;;7.48;82.75;98453.91;5109808;28;20462;-76
2021/12/28 09:02:08;;;;;;;;;;;;;;;7.59;82.22;98453.88;5112401;28;20010;-76
2021/12/28 09:04:34;;;;;;;;;;;;;;;7.67;81.92;98451.44;5094393;28;19988;-76
2021/12/28 09:06:59;;;;;;;;;;;;;;;7.76;81.75;98456.22;5093702;28;19959;-76
2021/12/28 09:09:24;;;;;;;;;;;;;;;7.85;81.42;98449.28;5094281;28;20310;-76
2021/12/28 09:11:50;;;;;;;;;;;;;;;7.94;81.59;98450.28;5094377;28;19916;-76
2021/12/28 09:14:15;;;;;;;;;;;;;;;8.04;81.34;98432.69;5094062;28;19922;-76
2021/12/28 09:16:40;;;;;;;;;;;;;;;8.08;81.54;98433.72;5093622;28;19950;-73
2021/12/28 09:19:06;;;;;;;;;;;;;;;8.17;81.63;98432.88;5093704;28;20303;-74
2021/12/28 09:21:31;;;;;;;;;;;;;;;8.27;81.28;98432.00;5093326;28;20302;-76
2021/12/28 09:23:56;;;;;;;;;;;;;;;8.37;81.05;98425.81;5093855;28;20449;-74
2021/12/28 09:26:21;;;;;;;;;;;;;;;8.49;80.93;98430.84;5093673;28;19919;-74
2021/12/28 09:28:47;;;;;;;;;;;;;;;8.61;81.10;98430.50;5111449;28;19942;-74
2021/12/28 09:31:12;;;;;;;;;;;;;;;8.71;80.51;98419.75;5111446;28;19919;-73
2021/12/28 09:33:38;;;;;;;;;;;;;;;8.84;80.39;98417.50;5093965;28;19920;-73
2021/12/28 09:36:07;;;;;;;;;;;;;;;8.94;80.22;98414.78;5111822;28;19923;-73
2021/12/28 09:38:32;;;;;;;;;;;;;;;9.02;79.30;98408.03;5093500;28;19973;-76
2021/12/28 09:40:58;;;;;;;;;;;;;;;9.08;79.35;98407.72;5093326;28;19924;-74
2021/12/28 09:43:23;;;;;;;;;;;;;;;9.13;78.82;98397.00;5091791;28;19938;-74
2021/12/28 09:45:48;;;;;;;;;;;;;;;9.19;78.85;98396.94;5111043;28;19924;-74
2021/12/28 09:48:14;;;;;;;;;;;;;;;9.25;78.06;98395.78;5111324;28;19927;-74
2021/12/28 09:50:41;;;;;;;;;;;;;;;9.30;78.27;98390.41;5111962;28;19920;-74
2021/12/28 09:53:08;;;;;;;;;;;;;;;9.37;77.84;98392.75;5111697;28;19916;-74
2021/12/28 09:55:33;;;;;;;;;;;;;;;9.45;78.13;98397.47;5111223;28;20431;-77
2021/12/28 09:57:59;;;;;;;;;;;;;;;9.53;77.94;98391.50;5093431;28;20025;-77
2021/12/28 10:00:25;;;;;;;;;;;;;;;9.61;77.50;98392.75;5093242;28;19949;-75
2021/12/28 10:02:51;;;;;;;;;;;;;;;9.67;77.78;98388.94;5110636;28;20053;-75
2021/12/28 10:05:20;;;;;;;;;;;;;;;9.76;77.17;98391.75;5110539;28;20296;-77
2021/12/28 10:07:47;;;;;;;;;;;;;;;9.84;77.16;98393.78;5093619;28;19933;-84
2021/12/28 10:10:13;;;;;;;;;;;;;;;9.93;77.04;98383.25;5111226;28;20424;-73
2021/12/28 10:12:40;;;;;;;;;;;;;;;10.02;77.32;98380.72;5111774;28;19916;-74
2021/12/28 10:15:08;;;;;;;;;;;;;;;10.12;76.74;98387.81;5110992;28;20375;-73
2021/12/28 10:17:34;;;;;;;;;;;;;;;10.22;76.83;98387.69;5093148;28;19939;-74
2021/12/28 10:20:03;;;;;;;;;;;;;;;10.31;76.64;98382.47;5111431;28;20362;-73
2021/12/28 10:22:33;;;;;;;;;;;;;;;10.38;76.10;98386.38;5111020;28;20014;-73
2021/12/28 10:25:05;;;;;;;;;;;;;;;10.46;76.01;98381.47;5093325;28;19959;-76
2021/12/28 10:27:31;;;;;;;;;;;;;;;10.51;75.28;98384.84;5093331;28;19916;-74
2021/12/28 10:30:03;;;;;;;;;;;;;;;10.56;75.57;98384.00;5093320;28;20002;-74
2021/12/28 10:32:29;;;;;;;;;;;;;;;10.62;75.33;98374.00;5093300;28;19916;-75
2021/12/28 10:34:55;;;;;;;;;;;;;;;10.66;75.30;98375.00;5092593;28;19953;-74
2021/12/28 10:37:25;;;;;;;;;;;;;;;10.73;74.82;98368.19;5092777;28;19916;-75
2021/12/28 10:39:54;;;;;;;;;;;;;;;10.78;74.89;98369.19;5072687;28;20019;-74
2021/12/28 10:42:49;;;;;;;;;;;;;;;10.82;74.09;98375.53;5118933;28;20122;-74
2021/12/28 10:45:37;;;;;;;;;;;;;;;10.86;74.34;98363.97;5081177;28;19916;-74
2021/12/28 10:48:17;;;;;;;;;;;;;;;10.86;73.65;98363.16;5084950;28;19916;-75
2021/12/28 10:50:43;;;;;;;;;;;;;;;10.86;73.46;98355.94;5092922;28;20014;-74
2021/12/28 10:53:14;;;;;;;;;;;;;;;10.88;74.21;98361.00;5092449;28;20367;-74
2021/12/28 10:55:43;;;;;;;;;;;;;;;10.88;74.01;98351.06;5111071;28;20413;-74
2021/12/28 10:58:11;;;;;;;;;;;;;;;10.91;73.46;98349.69;5110856;28;20398;-73
2021/12/28 11:00:41;;;;;;;;;;;;;;;10.92;73.65;98345.94;5113812;28;19929;-76
2021/12/28 11:03:26;;;;;;;;;;;;;;;10.94;73.60;98343.75;5107551;28;19923;-81
2021/12/28 11:05:52;;;;;;;;;;;;;;;10.94;73.31;98333.06;5095875;28;19923;-74
2021/12/28 11:08:18;;;;;;;;;;;;;;;10.94;73.50;98335.72;5092996;28;19920;-75
2021/12/28 11:10:45;;;;;;;;;;;;;;;10.94;73.90;98335.72;5114663;28;19994;-75
2021/12/28 11:13:12;;;;;;;;;;;;;;;10.94;73.87;98332.28;5096346;28;19955;-76
2021/12/28 11:15:39;;;;;;;;;;;;;;;10.96;73.75;98322.06;5114958;28;19973;-78
2021/12/28 11:18:18;;;;;;;;;;;;;;;10.96;73.90;98332.75;5096190;28;19988;-79
2021/12/28 11:20:44;;;;;;;;;;;;;;;10.95;74.78;98329.28;5096188;28;20374;-78
2021/12/28 11:23:10;;;;;;;;;;;;;;;10.99;74.86;98332.19;5096031;28;20014;-76
2021/12/28 11:25:36;;;;;;;;;;;;;;;11.01;74.91;98321.94;5096298;28;19923;-76
2021/12/28 11:28:21;;;;;;;;;;;;;;;11.01;74.96;98321.94;5095969;28;19920;-77
2021/12/28 11:31:04;;;;;;;;;;;;;;;11.02;75.11;98313.66;5096225;28;20015;-78
2021/12/28 11:33:59;;;;;;;;;;;;;;;11.07;75.21;98312.75;5096270;28;19966;-83
2021/12/28 11:36:28;;;;;;;;;;;;;;;11.11;75.47;98307.59;5074081;28;19964;-82
2021/12/28 11:38:54;;;;;;;;;;;;;;;11.13;75.98;98302.75;5095923;28;20310;-78
2021/12/28 11:41:20;;;;;;;;;;;;;;;11.14;76.21;98307.78;5095590;28;19919;-76
2021/12/28 11:43:45;;;;;;;;;;;;;;;11.18;75.69;98306.13;5095764;28;19994;-77
2021/12/28 11:46:11;;;;;;;;;;;;;;;11.19;75.65;98306.91;5095667;28;19916;-80
2021/12/28 11:48:37;;;;;;;;;;;;;;;11.21;74.46;98310.06;5095937;28;19916;-81
2021/12/28 11:51:03;;;;;;;;;;;;;;;11.24;74.47;98306.78;5095692;28;19915;-76
2021/12/28 11:53:28;;;;;;;;;;;;;;;11.26;75.35;98304.63;5095862;28;19915;-76
2021/12/28 11:55:58;;;;;;;;;;;;;;;11.25;74.30;98295.00;5095265;28;20401;-78
2021/12/28 11:58:42;;;;;;;;;;;;;;;11.24;74.82;98295.31;5095383;28;19923;-78
2021/12/28 12:01:07;;;;;;;;;;;;;;;11.26;75.10;98296.59;5099008;28;19916;-79
2021/12/28 12:03:34;;;;;;;;;;;;;;;11.30;74.82;98304.81;5112113;28;19973;-76
2021/12/28 12:05:59;;;;;;;;;;;;;;;11.27;75.05;98298.19;5101875;28;19996;-73
2021/12/28 12:08:24;;;;;;;;;;;;;;;11.26;75.17;98296.59;5093529;28;20354;-74
2021/12/28 12:11:00;;;;;;;;;;;;;;;11.26;75.48;98293.91;5111111;28;19924;-75
2021/12/28 12:13:26;;;;;;;;;;;;;;;11.28;75.57;98296.28;5111614;28;19928;-72
2021/12/28 12:15:57;;;;;;;;;;;;;;;11.30;76.31;98299.47;5111808;28;20271;-76
2021/12/28 12:18:24;;;;;;;;;;;;;;;11.31;76.17;98303.72;5110995;28;19920;-75
2021/12/28 12:20:52;;;;;;;;;;;;;;;11.28;75.95;98301.63;5093465;28;19923;-74
2021/12/28 12:23:19;;;;;;;;;;;;;;;11.26;76.84;98296.59;5111842;28;19951;-76
2021/12/28 12:25:56;;;;;;;;;;;;;;;11.28;77.49;98298.97;5093322;28;20006;-76
2021/12/28 12:28:32;;;;;;;;;;;;;;;11.31;76.60;98303.72;5093243;28;20018;-75
2021/12/28 12:30:58;;;;;;;;;;;;;;;11.34;77.05;98295.91;5093895;28;19916;-76
2021/12/28 12:33:32;;;;;;;;;;;;;;;11.38;77.26;98304.13;5093283;28;19938;-74
2021/12/28 12:35:59;;;;;;;;;;;;;;;11.38;76.61;98306.78;5111911;28;19952;-74
2021/12/28 12:38:25;;;;;;;;;;;;;;;11.38;77.36;98306.78;5092734;28;19916;-75
2021/12/28 12:40:59;;;;;;;;;;;;;;;11.39;76.94;98305.72;5112386;28;19923;-74
2021/12/28 12:43:45;;;;;;;;;;;;;;;11.38;76.96;98301.44;5111810;28;19930;-74
2021/12/28 12:46:28;;;;;;;;;;;;;;;11.38;77.17;98304.91;5080756;28;19935;-75
2021/12/28 12:48:53;;;;;;;;;;;;;;;11.39;76.85;98300.34;5091115;28;19920;-73
2021/12/28 12:51:19;;;;;;;;;;;;;;;11.41;77.79;98305.41;5081894;28;19953;-74
2021/12/28 12:53:48;;;;;;;;;;;;;;;11.41;77.83;98308.84;5112097;28;20057;-75
2021/12/28 12:56:18;;;;;;;;;;;;;;;11.42;78.05;98310.44;5092677;28;20410;-74